Time;durP1;ratioP1;P1;durP2;ratioP2;P2;SDS_P1;SDS_P2;PMS_P1;PMS_P2;Temp;Humidity;BMP_temperature;BMP_pressure;BME280_temperature;BME280_humidity;BME280_pressure;Samples;Min_cycle;Max_cycle;Signal;HPM_P1;HPM_P2
2021/11/04 00:02:17;;;;;;;1.38;0.80;;;18.10;66.20;;;;;;5051965;28;20532;-72
2021/11/04 00:04:42;;;;;;;1.08;0.88;;;18.10;66.20;;;;;;5050905;28;20052;-72
2021/11/04 00:07:11;;;;;;;1.20;1.00;;;18.10;66.20;;;;;;5055447;28;20367;-72
2021/11/04 00:09:37;;;;;;;2.60;0.88;;;18.10;66.20;;;;;;5055318;28;20036;-72
2021/11/04 00:12:03;;;;;;;1.23;0.80;;;18.10;66.30;;;;;;5054756;28;20036;-72
2021/11/04 00:14:29;;;;;;;1.80;0.80;;;18.10;66.30;;;;;;5055659;28;20028;-72
2021/11/04 00:16:54;;;;;;;1.75;0.80;;;18.10;66.30;;;;;;5054654;28;20021;-72
2021/11/04 00:19:20;;;;;;;3.40;1.13;;;18.10;66.40;;;;;;5054406;28;20033;-72
2021/11/04 00:21:45;;;;;;;1.02;0.73;;;18.10;66.40;;;;;;5054003;28;20052;-72
2021/11/04 00:24:11;;;;;;;1.42;0.80;;;18.10;66.40;;;;;;5055843;28;20100;-72
2021/11/04 00:26:37;;;;;;;1.38;1.08;;;18.10;66.40;;;;;;5054219;28;20029;-72
2021/11/04 00:29:02;;;;;;;2.05;0.85;;;18.10;66.50;;;;;;5054472;28;20021;-72
2021/11/04 00:31:28;;;;;;;1.70;1.00;;;18.00;66.40;;;;;;5054200;28;20048;-72
2021/11/04 00:33:55;;;;;;;1.05;0.77;;;18.00;66.50;;;;;;5037743;28;20481;-72
2021/11/04 00:36:22;;;;;;;0.80;0.80;;;18.00;66.50;;;;;;5054971;28;20479;-72
2021/11/04 00:38:47;;;;;;;1.70;0.90;;;18.00;66.50;;;;;;5054437;28;20024;-72
2021/11/04 00:41:13;;;;;;;5.97;1.23;;;18.00;66.50;;;;;;5054243;28;20021;-72
2021/11/04 00:43:39;;;;;;;0.85;0.80;;;18.00;66.60;;;;;;5055101;28;20028;-72
2021/11/04 00:46:05;;;;;;;0.95;0.82;;;18.00;66.60;;;;;;5055421;28;20056;-72
2021/11/04 00:48:31;;;;;;;2.40;0.90;;;18.00;66.60;;;;;;5053997;28;20063;-72
2021/11/04 00:50:56;;;;;;;1.45;0.90;;;18.00;66.60;;;;;;5054753;28;20029;-72
2021/11/04 00:53:22;;;;;;;1.23;0.70;;;18.00;66.70;;;;;;5053995;28;20424;-72
2021/11/04 00:55:49;;;;;;;1.80;0.88;;;18.00;66.70;;;;;;5053650;28;20024;-72
2021/11/04 00:58:15;;;;;;;1.52;0.93;;;18.00;66.70;;;;;;5055088;28;20017;-72
2021/11/04 01:00:41;;;;;;;1.17;0.70;;;18.00;66.70;;;;;;5054873;28;20021;-72
2021/11/04 01:03:07;;;;;;;0.85;0.70;;;18.00;66.70;;;;;;5053805;28;20017;-72
2021/11/04 01:05:32;;;;;;;0.95;0.88;;;18.00;66.80;;;;;;5054493;28;20052;-72
2021/11/04 01:07:59;;;;;;;1.30;1.00;;;17.90;66.70;;;;;;5053525;28;20059;-72
2021/11/04 01:10:25;;;;;;;1.15;0.98;;;18.00;66.80;;;;;;5053547;28;20021;-72
2021/11/04 01:12:51;;;;;;;1.42;0.70;;;17.90;66.70;;;;;;5053815;28;20072;-72
2021/11/04 01:15:17;;;;;;;1.42;0.80;;;18.00;66.80;;;;;;5053592;28;20036;-72
2021/11/04 01:17:43;;;;;;;1.80;0.73;;;17.90;66.80;;;;;;5053132;28;20500;-72
2021/11/04 01:20:09;;;;;;;1.40;0.80;;;17.90;66.80;;;;;;5053271;28;20014;-72
2021/11/04 01:22:35;;;;;;;1.20;0.90;;;17.90;66.80;;;;;;5053155;28;20025;-72
2021/11/04 01:25:01;;;;;;;1.13;0.63;;;17.90;66.90;;;;;;5054516;28;20021;-72
2021/11/04 01:27:27;;;;;;;1.02;0.68;;;17.90;66.90;;;;;;5053429;28;20470;-72
2021/11/04 01:29:52;;;;;;;0.55;0.55;;;17.90;66.90;;;;;;5036633;28;20033;-72
2021/11/04 01:32:18;;;;;;;1.15;0.73;;;17.90;67.00;;;;;;5054315;28;20053;-72
2021/11/04 01:34:43;;;;;;;1.98;0.60;;;17.90;67.00;;;;;;5053782;28;20024;-72
2021/11/04 01:37:09;;;;;;;0.85;0.70;;;17.90;67.00;;;;;;5053140;28;20029;-72
2021/11/04 01:39:35;;;;;;;2.75;0.80;;;17.90;67.00;;;;;;5053956;28;20024;-72
2021/11/04 01:42:00;;;;;;;0.50;0.50;;;17.90;67.00;;;;;;5054311;28;20026;-72
2021/11/04 01:44:28;;;;;;;0.57;0.55;;;17.90;67.10;;;;;;5052996;28;20448;-72
2021/11/04 01:46:54;;;;;;;1.20;0.65;;;17.80;67.00;;;;;;5053118;28;20017;-72
2021/11/04 01:49:19;;;;;;;1.40;0.90;;;17.90;67.10;;;;;;5052747;28;20079;-72
2021/11/04 01:51:45;;;;;;;0.95;0.70;;;17.90;67.10;;;;;;5052672;28;20051;-72
2021/11/04 01:54:11;;;;;;;1.33;0.88;;;17.90;67.10;;;;;;5052868;28;20481;-72
2021/11/04 01:56:38;;;;;;;1.13;0.77;;;17.90;67.10;;;;;;5052602;28;20101;-72
2021/11/04 01:59:03;;;;;;;1.02;0.70;;;17.80;67.10;;;;;;5052758;28;20021;-72
2021/11/04 02:01:29;;;;;;;1.60;0.70;;;17.80;67.10;;;;;;5053990;28;20044;-72
2021/11/04 02:04:00;;;;;;;1.40;0.80;;;17.80;67.20;;;;;;5053292;28;20394;-72
2021/11/04 02:06:26;;;;;;;1.65;0.70;;;17.90;67.20;;;;;;5053720;28;20025;-72
2021/11/04 02:08:55;;;;;;;0.60;0.60;;;17.80;67.20;;;;;;5053541;28;20450;-72
2021/11/04 02:11:24;;;;;;;0.88;0.68;;;17.80;67.20;;;;;;5053671;28;20037;-72
2021/11/04 02:14:02;;;;;;;1.65;0.63;;;17.80;67.20;;;;;;5052241;28;20028;-71
2021/11/04 02:16:29;;;;;;;1.98;0.70;;;17.80;67.30;;;;;;5052332;28;20029;-72
2021/11/04 02:18:59;;;;;;;0.70;0.70;;;17.80;67.30;;;;;;5051882;28;20017;-72
2021/11/04 02:21:36;;;;;;;1.23;0.73;;;17.80;67.30;;;;;;5036223;28;20040;-71
2021/11/04 02:24:25;;;;;;;1.33;0.65;;;17.80;67.30;;;;;;5036064;28;20028;-71
2021/11/04 02:26:51;;;;;;;0.80;0.52;;;17.80;67.40;;;;;;5037710;28;20021;-71
2021/11/04 02:29:17;;;;;;;1.20;0.90;;;17.80;67.40;;;;;;5051774;28;20017;-72
2021/11/04 02:31:43;;;;;;;1.83;0.70;;;17.80;67.40;;;;;;5035327;28;20025;-72
2021/11/04 02:34:08;;;;;;;1.20;0.50;;;17.80;67.40;;;;;;5035635;28;20036;-72
2021/11/04 02:36:34;;;;;;;1.33;0.80;;;17.80;67.50;;;;;;5034165;28;20033;-72
2021/11/04 02:38:59;;;;;;;0.70;0.70;;;17.80;67.50;;;;;;5033742;28;20056;-72
2021/11/04 02:41:25;;;;;;;2.22;1.13;;;17.80;67.50;;;;;;5038930;28;20033;-72
2021/11/04 02:43:51;;;;;;;1.98;0.50;;;17.80;67.50;;;;;;5058737;28;20018;-72
2021/11/04 02:46:16;;;;;;;0.52;0.52;;;17.80;67.60;;;;;;5048485;28;20032;-72
2021/11/04 02:48:42;;;;;;;0.90;0.82;;;17.80;67.50;;;;;;5041705;28;20525;-72
2021/11/04 02:51:08;;;;;;;0.73;0.70;;;17.80;67.60;;;;;;5038035;28;20078;-72
2021/11/04 02:53:33;;;;;;;0.85;0.75;;;17.80;67.60;;;;;;5055149;28;20025;-72
2021/11/04 02:55:59;;;;;;;1.98;0.70;;;17.80;67.60;;;;;;5056242;28;20040;-72
2021/11/04 02:58:26;;;;;;;0.88;0.80;;;17.80;67.60;;;;;;5038214;28;20505;-72
2021/11/04 03:00:54;;;;;;;1.83;0.65;;;17.80;67.70;;;;;;5040410;28;20044;-72
2021/11/04 03:03:19;;;;;;;0.82;0.50;;;17.80;68.70;;;;;;5039463;28;20649;-72
2021/11/04 03:05:45;;;;;;;1.30;0.73;;;17.80;67.70;;;;;;5039238;28;20116;-72
2021/11/04 03:08:11;;;;;;;2.58;0.70;;;17.80;67.70;;;;;;5054309;28;20095;-71
2021/11/04 03:10:36;;;;;;;1.02;0.60;;;17.80;67.70;;;;;;5054072;28;20021;-71
2021/11/04 03:13:03;;;;;;;1.42;0.80;;;17.80;67.70;;;;;;5035539;28;20018;-71
2021/11/04 03:15:30;;;;;;;3.58;0.63;;;17.70;67.80;;;;;;5030886;28;20029;-71
2021/11/04 03:17:55;;;;;;;2.38;0.77;;;17.80;67.80;;;;;;5051001;28;20013;-71
2021/11/04 03:20:21;;;;;;;1.83;0.65;;;17.80;67.70;;;;;;5034643;28;20025;-71
2021/11/04 03:22:47;;;;;;;1.20;1.00;;;17.80;67.70;;;;;;5040358;28;20026;-71
2021/11/04 03:25:14;;;;;;;1.38;1.13;;;17.80;67.70;;;;;;5032643;28;20470;-71
2021/11/04 03:27:41;;;;;;;1.17;0.68;;;17.80;67.70;;;;;;5032733;28;20026;-71
2021/11/04 03:30:08;;;;;;;1.17;0.68;;;17.80;67.70;;;;;;5031011;28;20035;-71
2021/11/04 03:32:33;;;;;;;1.25;0.82;;;17.80;67.80;;;;;;5047505;28;20033;-71
2021/11/04 03:34:59;;;;;;;1.73;0.80;;;17.80;67.80;;;;;;5047490;28;20021;-71
2021/11/04 03:37:28;;;;;;;1.48;0.73;;;17.80;68.80;;;;;;5031150;28;20116;-71
2021/11/04 03:39:54;;;;;;;2.00;0.80;;;17.80;67.80;;;;;;5046613;28;20091;-71
2021/11/04 03:42:19;;;;;;;0.77;0.70;;;17.70;67.80;;;;;;5031174;28;20025;-71
2021/11/04 03:44:45;;;;;;;2.17;0.80;;;17.70;67.90;;;;;;5030724;28;20040;-71
2021/11/04 03:47:12;;;;;;;1.40;0.60;;;17.70;67.80;;;;;;5031060;28;20021;-71
2021/11/04 03:49:38;;;;;;;0.60;0.47;;;17.70;67.90;;;;;;5031313;28;20501;-71
2021/11/04 03:52:04;;;;;;;1.83;0.50;;;17.70;67.90;;;;;;5030205;28;20108;-71
2021/11/04 03:54:29;;;;;;;1.00;0.80;;;17.70;67.90;;;;;;5047702;28;20104;-71
2021/11/04 03:56:55;;;;;;;2.00;0.82;;;17.70;67.90;;;;;;5030826;28;20104;-71
2021/11/04 03:59:21;;;;;;;2.63;0.70;;;17.70;68.00;;;;;;5030729;28;20036;-71
2021/11/04 04:01:47;;;;;;;1.27;0.80;;;17.70;67.90;;;;;;5030739;28;20104;-71
2021/11/04 04:04:13;;;;;;;1.52;0.70;;;17.70;68.00;;;;;;5030898;28;20029;-71
2021/11/04 04:06:38;;;;;;;0.60;0.52;;;17.70;68.00;;;;;;5030665;28;20022;-71
2021/11/04 04:09:04;;;;;;;1.48;0.60;;;17.70;68.00;;;;;;5030804;28;20026;-71
2021/11/04 04:11:30;;;;;;;1.17;0.65;;;17.70;68.00;;;;;;5030908;28;20028;-71
2021/11/04 04:13:56;;;;;;;1.52;0.98;;;17.70;68.10;;;;;;5030406;28;20021;-71
2021/11/04 04:16:22;;;;;;;1.95;0.80;;;17.70;68.10;;;;;;5032003;28;20111;-71
2021/11/04 04:18:48;;;;;;;7.80;0.65;;;17.70;68.10;;;;;;5041052;28;20530;-71
2021/11/04 04:21:14;;;;;;;2.05;1.05;;;17.70;68.10;;;;;;5050531;28;20033;-71
2021/11/04 04:23:40;;;;;;;2.13;0.70;;;17.70;68.10;;;;;;5051910;28;20021;-71
2021/11/04 04:26:06;;;;;;;3.22;0.90;;;17.70;68.10;;;;;;5050434;28;20367;-71
2021/11/04 04:28:31;;;;;;;1.75;0.50;;;17.60;68.00;;;;;;5051368;28;20025;-71
2021/11/04 04:30:57;;;;;;;1.98;0.70;;;17.60;68.00;;;;;;5050520;28;20032;-71
2021/11/04 04:33:23;;;;;;;0.75;0.57;;;17.60;68.00;;;;;;5050495;28;20032;-71
2021/11/04 04:35:50;;;;;;;0.77;0.52;;;17.70;68.20;;;;;;5050293;28;20096;-71
2021/11/04 04:38:16;;;;;;;0.93;0.60;;;17.60;68.10;;;;;;5051549;28;20037;-71
2021/11/04 04:40:41;;;;;;;2.35;0.80;;;17.60;68.10;;;;;;5051671;28;20075;-71
2021/11/04 04:43:07;;;;;;;0.85;0.50;;;17.70;68.20;;;;;;5050047;28;20017;-71
2021/11/04 04:45:32;;;;;;;0.60;0.50;;;17.60;68.20;;;;;;5051694;28;20509;-71
2021/11/04 04:47:58;;;;;;;1.75;0.60;;;17.60;68.20;;;;;;5050273;28;20040;-71
2021/11/04 04:50:24;;;;;;;2.40;0.60;;;17.60;68.20;;;;;;5051504;28;20095;-71
2021/11/04 04:52:49;;;;;;;2.10;0.70;;;17.60;68.20;;;;;;5053573;28;20103;-71
2021/11/04 04:55:15;;;;;;;1.45;0.70;;;17.60;68.20;;;;;;5055071;28;20486;-71
2021/11/04 04:57:40;;;;;;;0.85;0.63;;;17.60;68.20;;;;;;5053530;28;20033;-71
2021/11/04 05:00:11;;;;;;;0.60;0.50;;;17.60;68.20;;;;;;5053661;28;20029;-71
2021/11/04 05:02:41;;;;;;;0.57;0.47;;;17.60;68.20;;;;;;5053861;28;20096;-71
2021/11/04 05:05:07;;;;;;;1.98;0.60;;;17.60;68.30;;;;;;5053548;28;20032;-71
2021/11/04 05:07:33;;;;;;;1.15;0.70;;;17.60;68.30;;;;;;5053705;28;20159;-71
2021/11/04 05:09:59;;;;;;;1.63;0.60;;;17.60;68.30;;;;;;5053641;28;20135;-71
2021/11/04 05:12:24;;;;;;;1.23;0.63;;;17.60;68.30;;;;;;5054476;28;20421;-71
2021/11/04 05:14:50;;;;;;;0.68;0.52;;;17.60;68.30;;;;;;5053453;28;20029;-71
2021/11/04 05:17:15;;;;;;;0.75;0.52;;;17.60;68.30;;;;;;5053489;28;20024;-71
2021/11/04 05:19:41;;;;;;;1.60;0.63;;;17.60;69.30;;;;;;5053413;28;20025;-71
2021/11/04 05:22:07;;;;;;;0.50;0.50;;;17.60;68.40;;;;;;5053221;28;20021;-71
2021/11/04 05:24:35;;;;;;;0.50;0.50;;;17.60;68.30;;;;;;5054636;28;20037;-71
2021/11/04 05:27:02;;;;;;;0.82;0.60;;;17.60;68.40;;;;;;5052867;28;20029;-71
2021/11/04 05:29:28;;;;;;;0.63;0.40;;;17.50;68.30;;;;;;5053305;28;20024;-71
2021/11/04 05:31:53;;;;;;;0.70;0.60;;;17.60;68.50;;;;;;5054309;28;20033;-71
2021/11/04 05:34:19;;;;;;;0.75;0.50;;;17.60;68.50;;;;;;5054148;28;20482;-71
2021/11/04 05:36:45;;;;;;;1.83;0.50;;;17.60;68.50;;;;;;5036890;28;20025;-71
2021/11/04 05:39:10;;;;;;;1.02;0.50;;;17.50;68.40;;;;;;5053962;28;20029;-71
2021/11/04 05:41:36;;;;;;;1.00;0.70;;;17.50;68.40;;;;;;5054021;28;20033;-71
2021/11/04 05:44:01;;;;;;;1.65;0.80;;;17.50;68.40;;;;;;5054176;28;20100;-71
2021/11/04 05:46:27;;;;;;;0.50;0.43;;;17.60;68.50;;;;;;5052926;28;20539;-71
2021/11/04 05:48:53;;;;;;;0.57;0.50;;;17.60;68.50;;;;;;5054108;28;20025;-71
2021/11/04 05:51:18;;;;;;;3.05;0.63;;;17.50;68.40;;;;;;5054036;28;20025;-71
2021/11/04 05:53:44;;;;;;;0.85;0.60;;;17.50;68.50;;;;;;5054100;28;20029;-71
2021/11/04 05:56:09;;;;;;;2.53;0.60;;;17.50;68.50;;;;;;5053655;28;20138;-71
2021/11/04 05:58:35;;;;;;;0.93;0.60;;;17.50;68.50;;;;;;5053987;28;20052;-71
2021/11/04 06:01:01;;;;;;;0.50;0.50;;;17.50;68.50;;;;;;5053757;28;20074;-71
2021/11/04 06:03:26;;;;;;;1.42;0.60;;;17.50;68.50;;;;;;5052172;28;20508;-71
2021/11/04 06:05:52;;;;;;;0.60;0.60;;;17.50;68.50;;;;;;5053824;28;20036;-72
2021/11/04 06:08:18;;;;;;;0.40;0.40;;;17.50;68.50;;;;;;5052245;28;20531;-71
2021/11/04 06:10:43;;;;;;;4.05;0.60;;;17.50;68.50;;;;;;5052268;28;20035;-71
2021/11/04 06:13:09;;;;;;;0.38;0.38;;;17.50;68.50;;;;;;5052336;28;20104;-71
2021/11/04 06:15:35;;;;;;;0.47;0.43;;;17.50;68.60;;;;;;5052361;28;20110;-71
2021/11/04 06:18:00;;;;;;;0.68;0.68;;;17.50;68.50;;;;;;5068701;28;20478;-71
2021/11/04 06:20:26;;;;;;;1.65;0.60;;;17.50;68.60;;;;;;5052380;28;20028;-71
2021/11/04 06:22:53;;;;;;;0.60;0.57;;;17.50;68.60;;;;;;5052174;28;20049;-71
2021/11/04 06:25:19;;;;;;;0.80;0.50;;;17.50;68.60;;;;;;5052101;28;20032;-71
2021/11/04 06:27:44;;;;;;;0.77;0.40;;;17.50;68.60;;;;;;5053332;28;20033;-72
2021/11/04 06:30:10;;;;;;;0.95;0.77;;;17.50;68.60;;;;;;5050269;28;20095;-71
2021/11/04 06:32:36;;;;;;;0.65;0.47;;;17.50;68.80;;;;;;5015302;28;20036;-71
2021/11/04 06:35:03;;;;;;;1.65;0.47;;;17.50;68.70;;;;;;5035358;28;20033;-72
2021/11/04 06:37:29;;;;;;;1.45;0.60;;;17.50;68.70;;;;;;5016720;28;20029;-72
2021/11/04 06:39:54;;;;;;;0.65;0.50;;;17.50;68.70;;;;;;5037384;28;20071;-72
2021/11/04 06:42:20;;;;;;;1.42;0.50;;;17.50;68.70;;;;;;5033464;28;20018;-72
2021/11/04 06:44:46;;;;;;;0.30;0.30;;;17.50;68.70;;;;;;5045225;28;20092;-71
2021/11/04 06:47:28;;;;;;;0.65;0.60;;;17.50;68.70;;;;;;5068096;28;20024;-71
2021/11/04 06:49:55;;;;;;;0.55;0.50;;;17.60;68.80;;;;;;5059217;28;20029;-70
2021/11/04 06:52:24;;;;;;;0.88;0.63;;;17.50;68.80;;;;;;5062213;28;20029;-71
2021/11/04 06:54:50;;;;;;;1.00;0.57;;;17.50;68.80;;;;;;5066340;28;20016;-72
2021/11/04 06:57:18;;;;;;;0.52;0.40;;;17.50;68.80;;;;;;5054656;28;20025;-71
2021/11/04 06:59:43;;;;;;;0.90;0.60;;;17.50;68.80;;;;;;5049771;28;20024;-71
2021/11/04 07:02:09;;;;;;;0.50;0.50;;;17.50;68.80;;;;;;5060767;28;20032;-71
2021/11/04 07:04:37;;;;;;;0.70;0.60;;;17.50;68.80;;;;;;5059127;28;20025;-72
2021/11/04 07:07:13;;;;;;;0.80;0.70;;;17.50;68.80;;;;;;5034731;28;20135;-72
2021/11/04 07:09:40;;;;;;;0.55;0.40;;;17.50;68.80;;;;;;5041587;28;20017;-72
2021/11/04 07:12:08;;;;;;;0.60;0.50;;;17.50;68.90;;;;;;5064384;28;20025;-72
2021/11/04 07:14:34;;;;;;;0.73;0.40;;;17.50;68.90;;;;;;5043175;28;20092;-72
2021/11/04 07:17:00;;;;;;;1.17;0.40;;;17.50;69.00;;;;;;5042784;28;20028;-72
2021/11/04 07:19:27;;;;;;;0.73;0.40;;;17.50;68.90;;;;;;5026710;28;20470;-72
2021/11/04 07:21:56;;;;;;;0.63;0.30;;;17.50;68.90;;;;;;5050640;28;20052;-72
2021/11/04 07:24:45;;;;;;;0.77;0.47;;;17.50;68.80;;;;;;5067937;28;20380;-72
2021/11/04 07:27:14;;;;;;;0.30;0.30;;;17.60;68.80;;;;;;5049332;28;20121;-73
2021/11/04 07:29:43;;;;;;;0.40;0.30;;;17.50;68.80;;;;;;5055354;28;20536;-73
2021/11/04 07:32:09;;;;;;;0.40;0.40;;;17.50;68.80;;;;;;5025529;28;20036;-73
2021/11/04 07:34:35;;;;;;;0.30;0.30;;;17.50;68.80;;;;;;5033735;28;20389;-73
2021/11/04 07:37:00;;;;;;;1.23;0.30;;;17.50;68.80;;;;;;5046404;28;20430;-72
2021/11/04 07:39:26;;;;;;;0.68;0.50;;;17.50;68.80;;;;;;5034169;28;20022;-73
2021/11/04 07:41:52;;;;;;;0.50;0.30;;;17.60;68.80;;;;;;5047341;28;20024;-73
2021/11/04 07:44:17;;;;;;;0.22;0.22;;;17.50;68.80;;;;;;5037316;28;20021;-72
2021/11/04 07:46:43;;;;;;;1.23;0.20;;;17.50;68.70;;;;;;5046100;28;20510;-73
2021/11/04 07:49:08;;;;;;;0.30;0.30;;;17.50;68.70;;;;;;5035165;28;20104;-69
2021/11/04 07:51:37;;;;;;;4.20;0.80;;;17.50;68.70;;;;;;5049928;28;20094;-71
2021/11/04 07:54:06;;;;;;;4.95;1.05;;;17.60;68.80;;;;;;5050785;28;20489;-71
2021/11/04 07:56:34;;;;;;;7.80;1.42;;;17.60;68.70;;;;;;5050567;28;20029;-71
2021/11/04 07:58:59;;;;;;;5.00;1.50;;;17.60;68.80;;;;;;5050875;28;20045;-71
2021/11/04 08:01:25;;;;;;;5.68;1.20;;;17.70;68.80;;;;;;5050541;28;20063;-71
2021/11/04 08:03:51;;;;;;;6.45;1.55;;;17.60;68.70;;;;;;5050616;28;20021;-71
2021/11/04 08:06:16;;;;;;;9.20;2.20;;;17.60;68.70;;;;;;5050327;28;20055;-71
2021/11/04 08:08:42;;;;;;;10.18;1.98;;;17.60;68.70;;;;;;5051822;28;20045;-71
2021/11/04 08:11:07;;;;;;;8.88;1.95;;;17.70;68.80;;;;;;5033949;28;20040;-71
2021/11/04 08:13:33;;;;;;;4.15;1.50;;;17.70;68.80;;;;;;5050595;28;20025;-71
2021/11/04 08:15:59;;;;;;;6.22;2.00;;;17.70;68.70;;;;;;5050652;28;20497;-71
2021/11/04 08:18:24;;;;;;;6.22;1.40;;;17.70;68.80;;;;;;5051621;28;20088;-71
2021/11/04 08:20:51;;;;;;;11.40;1.65;;;17.70;68.70;;;;;;5050394;28;20017;-71
2021/11/04 08:23:17;;;;;;;10.13;1.45;;;17.70;68.70;;;;;;5050438;28;20013;-71
2021/11/04 08:25:43;;;;;;;5.68;1.55;;;17.70;68.80;;;;;;5051891;28;20383;-71
2021/11/04 08:28:09;;;;;;;7.75;1.98;;;17.70;68.70;;;;;;5055780;28;20017;-71
2021/11/04 08:30:35;;;;;;;5.65;1.60;;;17.80;68.80;;;;;;5054338;28;20093;-71
2021/11/04 08:33:00;;;;;;;9.05;2.05;;;17.80;68.80;;;;;;5054435;28;20025;-71
2021/11/04 08:35:26;;;;;;;13.65;3.10;;;17.80;68.70;;;;;;5053777;28;20025;-71
2021/11/04 08:37:52;;;;;;;8.07;1.60;;;17.70;68.70;;;;;;5054235;28;20022;-71
2021/11/04 08:40:18;;;;;;;8.20;2.00;;;17.80;68.70;;;;;;5054061;28;20475;-71
2021/11/04 08:42:43;;;;;;;11.48;2.15;;;17.80;68.70;;;;;;5054177;28;20482;-71
2021/11/04 08:45:09;;;;;;;10.27;2.10;;;17.80;68.80;;;;;;5053983;28;20033;-71
2021/11/04 08:47:35;;;;;;;9.73;2.03;;;17.80;68.70;;;;;;5053965;28;20029;-71
2021/11/04 08:50:01;;;;;;;12.70;2.33;;;17.80;68.70;;;;;;5053837;28;20534;-71
2021/11/04 08:52:28;;;;;;;5.63;1.73;;;17.80;68.80;;;;;;5053846;28;20021;-71
2021/11/04 08:54:54;;;;;;;4.40;1.20;;;17.80;68.70;;;;;;5053950;28;20049;-71
2021/11/04 08:57:19;;;;;;;6.45;1.33;;;17.80;68.80;;;;;;5055020;28;20049;-71
2021/11/04 08:59:45;;;;;;;8.10;1.42;;;17.80;68.70;;;;;;5053923;28;20025;-71
2021/11/04 09:02:14;;;;;;;6.45;1.48;;;17.80;68.70;;;;;;5053819;28;20510;-71
2021/11/04 09:04:43;;;;;;;4.47;1.40;;;17.80;68.70;;;;;;5053514;28;20025;-71
2021/11/04 09:07:10;;;;;;;9.00;1.67;;;17.80;68.70;;;;;;5053570;28;20041;-71
2021/11/04 09:09:36;;;;;;;8.15;1.80;;;17.80;68.70;;;;;;5053556;28;20109;-71
2021/11/04 09:12:02;;;;;;;6.72;1.50;;;17.80;68.70;;;;;;5053697;28;20096;-71
2021/11/04 09:14:28;;;;;;;6.72;1.70;;;17.80;68.70;;;;;;5054691;28;20401;-71
2021/11/04 09:16:54;;;;;;;9.85;1.73;;;17.80;68.70;;;;;;5053574;28;20032;-71
2021/11/04 09:19:19;;;;;;;3.35;1.38;;;17.80;68.70;;;;;;5054311;28;20059;-71
2021/11/04 09:21:45;;;;;;;4.68;1.65;;;17.80;68.60;;;;;;5053453;28;20025;-71
2021/11/04 09:24:11;;;;;;;8.15;1.33;;;17.80;68.70;;;;;;5053584;28;20085;-71
2021/11/04 09:26:36;;;;;;;8.45;1.50;;;17.80;68.70;;;;;;5054491;28;20032;-71
2021/11/04 09:29:02;;;;;;;6.80;1.50;;;17.80;68.60;;;;;;5053289;28;20490;-71
2021/11/04 09:31:28;;;;;;;6.70;1.25;;;17.80;68.60;;;;;;5053341;28;20031;-71
2021/11/04 09:33:57;;;;;;;6.65;1.98;;;17.80;68.60;;;;;;5054111;28;20111;-71
2021/11/04 09:36:25;;;;;;;5.93;1.52;;;17.80;68.60;;;;;;5053037;28;20021;-71
2021/11/04 09:38:52;;;;;;;6.57;1.23;;;17.80;68.60;;;;;;5052222;28;20086;-71
2021/11/04 09:41:17;;;;;;;4.28;1.30;;;17.80;68.60;;;;;;5053114;28;20025;-71
2021/11/04 09:43:43;;;;;;;4.35;1.63;;;17.80;68.60;;;;;;5052895;28;20116;-71
2021/11/04 09:46:09;;;;;;;7.03;1.45;;;17.80;68.60;;;;;;5052970;28;20040;-71
2021/11/04 09:48:35;;;;;;;5.70;1.40;;;17.80;68.60;;;;;;5052403;28;20036;-71
2021/11/04 09:51:01;;;;;;;4.93;1.38;;;17.80;68.60;;;;;;5054202;28;20033;-71
2021/11/04 09:53:27;;;;;;;4.80;1.33;;;17.90;68.60;;;;;;5053756;28;20024;-71
2021/11/04 09:55:52;;;;;;;2.85;1.23;;;17.80;68.60;;;;;;5052807;28;20102;-71
2021/11/04 09:58:18;;;;;;;5.60;1.05;;;17.80;69.60;;;;;;5053991;28;20021;-71
2021/11/04 10:00:44;;;;;;;8.88;1.60;;;17.80;68.50;;;;;;5052592;28;20023;-71
2021/11/04 10:03:11;;;;;;;6.22;1.42;;;17.90;68.60;;;;;;5053635;28;20096;-71
2021/11/04 10:05:55;;;;;;;4.53;1.10;;;17.80;68.50;;;;;;5053646;28;20029;-71
2021/11/04 10:08:31;;;;;;;6.82;0.98;;;17.90;68.50;;;;;;5053630;28;20053;-71
2021/11/04 10:11:05;;;;;;;7.72;1.20;;;17.90;68.50;;;;;;5052613;28;20021;-71
2021/11/04 10:13:31;;;;;;;7.05;1.42;;;17.90;68.50;;;;;;5052517;28;20028;-71
2021/11/04 10:15:57;;;;;;;1.90;1.10;;;17.80;68.50;;;;;;5052121;28;20107;-71
2021/11/04 10:18:22;;;;;;;6.65;1.70;;;17.80;68.50;;;;;;5053480;28;20104;-71
2021/11/04 10:20:58;;;;;;;3.47;1.10;;;17.80;68.50;;;;;;5053597;28;20028;-71
2021/11/04 10:23:25;;;;;;;4.10;1.08;;;17.90;68.50;;;;;;5052216;28;20028;-71
2021/11/04 10:26:01;;;;;;;5.85;1.25;;;17.90;68.50;;;;;;5052370;28;20254;-71
2021/11/04 10:28:29;;;;;;;2.70;0.93;;;17.90;68.50;;;;;;5052228;28;20078;-71
2021/11/04 10:30:56;;;;;;;3.42;1.10;;;17.90;68.50;;;;;;5051830;28;20025;-71
2021/11/04 10:33:23;;;;;;;2.13;0.95;;;17.90;68.50;;;;;;5052202;28;20025;-71
2021/11/04 10:35:54;;;;;;;3.38;1.25;;;17.90;68.50;;;;;;5053113;28;20032;-71
2021/11/04 10:38:20;;;;;;;2.35;1.02;;;17.90;68.50;;;;;;5052073;28;20484;-71
2021/11/04 10:40:49;;;;;;;4.55;1.10;;;17.90;68.50;;;;;;5052033;28;20151;-71
2021/11/04 10:43:15;;;;;;;3.30;1.15;;;17.90;68.50;;;;;;5053091;28;20021;-71
2021/11/04 10:45:40;;;;;;;5.05;0.75;;;17.90;68.50;;;;;;5052425;28;20036;-71
2021/11/04 10:48:19;;;;;;;2.90;0.90;;;17.90;68.40;;;;;;5053049;28;20387;-71
2021/11/04 10:50:45;;;;;;;3.58;1.00;;;17.90;68.40;;;;;;5051656;28;20067;-71
2021/11/04 10:53:12;;;;;;;1.85;0.77;;;17.90;68.40;;;;;;5035042;28;20402;-71
2021/11/04 10:55:38;;;;;;;3.67;1.40;;;17.90;68.40;;;;;;5031733;28;20028;-71
2021/11/04 10:58:07;;;;;;;4.38;1.10;;;17.90;68.40;;;;;;5031958;28;20022;-71
2021/11/04 11:00:38;;;;;;;5.72;1.00;;;17.90;68.40;;;;;;5032456;28;20021;-71
2021/11/04 11:03:03;;;;;;;1.38;0.75;;;17.90;68.40;;;;;;5031669;28;20025;-71
2021/11/04 11:05:33;;;;;;;4.82;1.15;;;17.90;68.40;;;;;;5032815;28;20382;-71
2021/11/04 11:07:59;;;;;;;3.88;0.93;;;17.90;68.40;;;;;;5031556;28;20103;-71
2021/11/04 11:10:24;;;;;;;2.78;0.77;;;17.90;68.30;;;;;;5031652;28;20034;-71
2021/11/04 11:12:50;;;;;;;7.63;1.10;;;17.90;68.30;;;;;;5031557;28;20087;-71
2021/11/04 11:15:19;;;;;;;1.77;0.80;;;17.90;68.30;;;;;;5014705;28;20033;-71
2021/11/04 11:17:48;;;;;;;2.67;1.30;;;17.90;68.30;;;;;;5031225;28;20553;-71
2021/11/04 11:20:15;;;;;;;3.08;0.80;;;17.90;68.30;;;;;;5031546;28;20014;-71
2021/11/04 11:22:43;;;;;;;2.60;1.05;;;17.90;68.30;;;;;;5031277;28;20486;-71
2021/11/04 11:25:10;;;;;;;1.63;0.75;;;18.00;68.30;;;;;;5032538;28;20022;-71
2021/11/04 11:27:35;;;;;;;2.28;0.90;;;17.90;68.20;;;;;;5031225;28;20084;-71
2021/11/04 11:30:01;;;;;;;1.63;0.70;;;17.90;68.30;;;;;;5031038;28;20022;-71
2021/11/04 11:32:28;;;;;;;4.15;1.42;;;17.90;68.20;;;;;;5031230;28;20029;-71
2021/11/04 11:35:16;;;;;;;3.78;1.27;;;17.90;68.20;;;;;;5031185;28;20026;-71
2021/11/04 11:38:06;;;;;;;2.42;0.80;;;18.00;68.20;;;;;;5032178;28;20035;-71
2021/11/04 11:40:32;;;;;;;1.60;0.70;;;18.00;68.20;;;;;;5032363;28;20076;-71
2021/11/04 11:43:01;;;;;;;2.67;0.95;;;17.90;68.30;;;;;;5030774;28;20307;-71
2021/11/04 11:45:27;;;;;;;3.00;0.80;;;17.90;68.20;;;;;;5035167;28;20053;-71
2021/11/04 11:47:53;;;;;;;2.67;1.02;;;17.90;68.20;;;;;;5034330;28;20079;-71
2021/11/04 11:50:32;;;;;;;1.73;1.13;;;18.00;68.30;;;;;;5050965;28;20025;-71
2021/11/04 11:53:05;;;;;;;3.13;0.90;;;18.00;68.20;;;;;;5050798;28;20544;-71
2021/11/04 11:55:47;;;;;;;4.60;0.77;;;17.90;68.20;;;;;;5014834;28;20028;-71
2021/11/04 11:58:16;;;;;;;5.72;0.90;;;18.00;68.20;;;;;;5015258;28;20025;-71
2021/11/04 12:00:50;;;;;;;1.73;0.90;;;17.90;68.20;;;;;;5031932;28;20247;-71
2021/11/04 12:03:38;;;;;;;2.22;0.98;;;18.00;68.30;;;;;;5034894;28;20096;-71
2021/11/04 12:06:06;;;;;;;2.05;0.80;;;18.00;68.10;;;;;;5036201;28;20022;-71
2021/11/04 12:08:33;;;;;;;2.88;1.02;;;17.90;68.30;;;;;;5035743;28;20068;-71
2021/11/04 12:10:59;;;;;;;2.42;0.85;;;17.90;68.20;;;;;;5018217;28;20119;-71
2021/11/04 12:13:35;;;;;;;4.93;1.15;;;17.90;68.20;;;;;;5035735;28;20029;-71
2021/11/04 12:16:15;;;;;;;1.67;0.60;;;18.00;68.20;;;;;;5034807;28;20118;-71
2021/11/04 12:18:54;;;;;;;1.77;0.80;;;18.00;68.20;;;;;;5018204;28;20021;-71
2021/11/04 12:21:34;;;;;;;2.80;0.65;;;18.00;68.20;;;;;;5034754;28;20056;-71
2021/11/04 12:24:02;;;;;;;3.85;0.80;;;18.00;68.20;;;;;;5034612;28;20021;-71
2021/11/04 12:26:41;;;;;;;1.00;0.70;;;18.00;68.20;;;;;;5018076;28;20025;-71
2021/11/04 12:29:07;;;;;;;1.17;0.65;;;18.00;68.20;;;;;;5035701;28;20033;-71
2021/11/04 12:31:36;;;;;;;0.95;0.60;;;18.00;68.20;;;;;;5034591;28;20045;-71
2021/11/04 12:34:01;;;;;;;4.28;1.00;;;18.00;68.20;;;;;;5034324;28;20022;-71
2021/11/04 12:36:41;;;;;;;2.75;0.70;;;18.00;68.20;;;;;;5034233;28;20435;-71
2021/11/04 12:39:08;;;;;;;1.80;0.60;;;18.00;68.10;;;;;;5035410;28;20170;-71
2021/11/04 12:41:33;;;;;;;3.35;0.80;;;18.00;68.20;;;;;;5034064;28;20018;-71
2021/11/04 12:44:01;;;;;;;1.88;0.70;;;18.00;68.20;;;;;;5034412;28;20036;-71
2021/11/04 12:46:27;;;;;;;1.17;0.55;;;18.00;68.20;;;;;;5029019;28;20025;-71